Hlavní strana
METAR-TAF:

METAR-TAF

Letiště :

Birmingham, Alabama, Spojené státy americké

zeměpisná šířka: 33-33-56N, zeměpisná délka: 086-44-42W, výška: 196 m

Aktuální stav počasí

Zpráva byla vytvořena před 49 minutami, v 10:53 UTC
Bezvětří
Teplota 22°C
Vlhkost vzduchu 83%
Tlak 1022 hPa
Viditelnost: 16.1 km
Jasno

METAR: KBHM 241053Z 00000KT 10SM CLR 22/19 A3017 RMK AO2 SLP207 T02170189

Čas: 06:42 (11:42 UTC)

Předpověď počasí

Zpráva byla vytvořena před 16 minutami, v 11:26 UTC
Předpověď platná od 24 v 12 UTC do 25 v 12 UTC
Jihozápadní vítr 5 kt
Viditelnost: 10 km
Polojasno ve výšce 5000 ft
Od 25 v 0400 UTC
Severní vítr kt
Viditelnost: 10 km
Jasno

TAF: KBHM 241126Z 2412/2512 23005KT P6SM SCT050 FM250400 00000KT P6SM SKC

Stav a předpovědi počasí z více než 4 000 letišť (zprávy METAR a TAF).

Červené a žluté tečky na mapě představují dostupné meteorologické stanice.

Když kurzor umístíte na tečku, zobrazí se název stanice.

Pak kliknutím zobrazíte stav a předpověď počasí.

Chcete-li změnit mapu, kliknutím na zelené tlačítko se znaménkem +mapu přiblížíte, kliknutím na zelené tlačítko se znaménkem – mapu oddálíte a kliknutím na zelené šipky přejdete na sousední mapy.


METAR-TAF: